Latest Weather Observations for Dubbo

IDN60801

Issued at 7:32 pm EST Tuesday 30 June 2015 (issued every 30 minutes, with the page automatically refreshed every 10 minutes)

About weather observations | Map of weather stations | Latest weather observations for NSW | Other Formats
Station Details ID: 065070 Name: DUBBO AIRPORT AWS Lat: -32.22 Lon: 148.58 Height: 284.0 m
Data from the previous 72 hours. | See also: Recent months at Dubbo
Date/Time
EST
Temp
°C
App
Temp
°C
Dew
Point
Rel
Hum
%
Delta-T
°C
Wind Press
QNH
hPa
Press
MSL
hPa
Rain
since 9 am
mm
Dir
 
Spd
km/h
Gust
km/h
Spd
kts
Gust
kts
30/07:30pm 10.2 8.9 9.1 93 0.5 SE 6 9 3 5 1027.1 1027.3 0.6
30/07:00pm 10.6 8.7 9.0 90 0.8 SSW 9 13 5 7 1026.8 1027.1 0.6
30/06:30pm 10.0 8.1 9.1 94 0.5 SSW 9 11 5 6 1026.6 1026.9 0.6
30/06:00pm 10.3 8.3 10.1 99 0.1 SW 11 13 6 7 1026.6 1026.9 0.6
30/05:30pm 10.7 9.3 9.6 93 0.6 SW 7 11 4 6 1026.2 1026.5 0.6
30/05:00pm 12.4 11.1 11.3 93 0.6 SSE 9 11 5 6 1025.9 1026.2 0.6
30/04:30pm 12.6 11.8 11.2 91 0.7 SSW 6 6 3 3 1026.1 1026.4 0.4
30/04:00pm 12.8 11.4 11.0 89 1.0 SW 9 11 5 6 1026.4 1026.7 0.4
30/03:30pm 13.5 13.7 10.5 82 1.6 CALM 0 0 0 0 1026.2 1026.5 0.4
30/03:00pm 13.4 13.6 10.6 83 1.5 CALM 0 6 0 3 1026.2 1026.5 0.4
30/02:30pm 13.5 12.5 10.3 81 1.7 W 6 7 3 4 1026.3 1026.6 0.4
30/02:00pm 13.5 12.1 9.7 78 2.0 W 7 7 4 4 1026.7 1027.0 0.2
30/01:30pm 14.1 13.4 10.1 77 2.1 NNW 4 7 2 4 1026.9 1027.2 0.0
30/01:00pm 13.8 12.6 9.5 75 2.2 ENE 6 7 3 4 1027.1 1027.3 0.0
30/12:30pm 13.9 12.0 9.1 73 2.5 N 9 13 5 7 1027.6 1027.8 0.0
30/12:00pm 14.9 12.8 9.9 72 2.6 NE 11 17 6 9 1028.1 1028.4 0.0
30/11:30am 13.7 12.1 10.1 79 1.9 E 9 13 5 7 1028.4 1028.7 0.0
30/11:00am 12.5 11.0 9.0 79 1.8 ESE 7 11 4 6 1028.7 1029.0 0.0
30/10:30am 12.4 10.2 9.4 82 1.5 SE 11 15 6 8 1028.8 1029.1 0.0
30/10:00am 10.4 7.1 8.0 85 1.2 SSE 15 19 8 10 1029.1 1029.4 0.0
30/09:30am 9.8 6.0 7.7 87 1.0 SSE 17 20 9 11 1029.1 1029.4 0.0
30/09:00am 8.9 5.4 7.2 89 0.8 SSE 15 20 8 11 1028.9 1029.2 0.0
30/08:30am 8.2 3.8 6.7 90 0.7 SSE 19 22 10 12 1028.8 1029.1 0.0
30/08:00am 7.9 4.2 6.4 90 0.7 SSE 15 19 8 10 1029.2 1029.5 0.0
30/07:30am 7.8 4.5 6.4 91 0.7 SSE 13 17 7 9 1029.1 1029.4 0.0
30/07:00am 8.0 4.8 6.8 92 0.6 S 13 19 7 10 1028.8 1029.1 0.0
30/06:30am 7.4 4.1 6.2 92 0.6 ESE 13 15 7 8 1028.3 1028.6 0.0
30/06:00am 7.5 3.4 6.1 91 0.6 SE 17 22 9 12 1028.0 1028.3 0.0
30/05:30am 8.1 4.8 6.6 90 0.7 S 13 17 7 9 1028.3 1028.6 0.0
30/05:00am 7.7 4.4 6.5 92 0.6 SSW 13 19 7 10 1028.1 1028.4 0.0
30/04:30am 7.7 4.8 6.6 93 0.5 ESE 11 15 6 8 1027.5 1027.7 0.0
30/04:00am 7.3 4.7 6.1 92 0.5 ESE 9 13 5 7 1027.6 1027.8 0.0
30/03:30am 6.6 3.0 5.1 90 0.7 SE 13 15 7 8 1028.0 1028.3 0.0
30/03:00am 6.7 2.7 5.0 89 0.8 SSE 15 19 8 10 1028.3 1028.6 0.0
30/02:30am 6.6 2.3 5.1 90 0.7 SSE 17 22 9 12 1028.3 1028.6 0.0
30/02:00am 6.6 3.4 5.1 90 0.7 SE 11 17 6 9 1028.6 1028.9 0.0
30/01:30am 6.3 2.7 5.1 92 0.5 SE 13 17 7 9 1028.7 1029.0 0.0
30/01:00am 6.3 3.4 4.9 91 0.6 SSE 9 13 5 7 1028.9 1029.2 0.0
30/12:30am 6.1 2.5 4.9 92 0.5 SE 13 15 7 8 1028.8 1029.1 0.0
30/12:00am 6.4 2.8 5.2 92 0.5 SSE 13 15 7 8 1029.1 1029.4 0.0
 
Date/Time
EST
Temp
°C
App
Temp
°C
Dew
Point
Rel
Hum
%
Delta-T
°C
Wind Press
QNH
hPa
Press
MSL
hPa
Rain
since 9 am
mm
Dir
 
Spd
km/h
Gust
km/h
Spd
kts
Gust
kts
29/11:30pm 6.3 3.1 4.9 91 0.6 SSE 11 13 6 7 1029.4 1029.7 0.0
29/11:00pm 6.6 3.4 5.1 90 0.7 SSE 11 15 6 8 1029.7 1030.0 0.0
29/10:30pm 6.3 3.0 4.8 90 0.7 SSE 11 13 6 7 1029.7 1030.0 0.0
29/10:00pm 6.7 3.5 5.2 90 0.7 SSE 11 13 6 7 1029.7 1030.0 0.0
29/09:30pm 6.1 3.2 4.7 91 0.6 SE 9 11 5 6 1029.8 1030.1 0.0
29/09:00pm 6.7 4.1 4.4 85 1.0 E 7 9 4 5 1030.1 1030.4 0.0
29/08:30pm 6.9 5.1 3.3 78 1.5 SW 2 7 1 4 1030.2 1030.5 0.0
29/08:00pm 7.3 5.8 3.0 74 1.8 CALM 0 0 0 0 1030.3 1030.6 0.0
29/07:30pm 8.6 7.4 4.6 76 1.8 CALM 0 0 0 0 1030.3 1030.6 0.0
29/07:00pm 7.0 4.1 1.7 69 2.2 WSW 6 9 3 5 1030.0 1030.3 0.0
29/06:30pm 10.3 6.9 4.2 66 2.8 SW 11 13 6 7 1029.7 1030.0 0.0
29/06:00pm 10.8 7.6 4.9 67 2.7 SW 11 11 6 6 1029.5 1029.8 0.0
29/05:30pm 11.1 8.3 5.0 66 2.8 WSW 9 11 5 6 1029.4 1029.7 0.0
29/05:00pm 13.4 10.8 6.3 62 3.4 WNW 9 11 5 6 1029.4 1029.7 0.0
29/04:30pm 15.6 13.0 6.1 53 4.7 W 9 9 5 5 1029.3 1029.6 0.0
29/04:00pm 16.6 13.4 3.0 40 6.3 NW 9 11 5 6 1029.2 1029.5 0.0
29/03:30pm 16.6 12.7 3.3 41 6.2 NW 13 17 7 9 1029.2 1029.5 0.0
29/03:00pm 16.8 12.6 5.7 48 5.4 NW 17 20 9 11 1029.2 1029.5 0.0
29/02:30pm 17.0 13.0 6.5 50 5.2 NW 17 22 9 12 1029.1 1029.4 0.0
29/02:00pm 17.1 13.2 5.4 46 5.7 NW 15 20 8 11 1029.1 1029.4 0.0
29/01:30pm 17.4 13.0 0.1 31 7.6 NNE 13 19 7 10 1029.4 1029.7 0.0
29/01:00pm 17.4 12.8 1.4 34 7.2 NNE 15 20 8 11 1029.6 1029.9 0.0
29/12:30pm 16.0 13.3 7.5 57 4.3 ENE 11 20 6 11 1030.0 1030.3 0.0
29/12:00pm 15.5 12.7 8.5 63 3.6 ENE 13 20 7 11 1030.6 1030.9 0.0
29/11:30am 14.6 10.7 8.8 68 3.0 E 19 22 10 12 1031.1 1031.4 0.0
29/11:00am 13.5 9.4 8.6 72 2.5 E 20 26 11 14 1031.5 1031.8 0.0
29/10:30am 12.2 8.8 9.2 82 1.5 E 17 26 9 14 1031.9 1032.2 0.0
29/10:00am 9.6 6.9 9.0 96 0.3 ESE 13 17 7 9 1032.2 1032.5 0.0
29/09:30am 7.7 4.7 7.6 99 0.0 SE 13 17 7 9 1032.4 1032.7 0.0
29/09:00am 5.5 2.0 5.5 100 0.0 SSE 13 13 7 7 1032.3 1032.6 0.4
29/08:30am 3.9 0.1 3.9 100 0.0 SSE 13 17 7 9 1032.3 1032.6 0.4
29/08:00am 2.9 -1.1 2.9 100 0.0 SE 13 17 7 9 1032.3 1032.6 0.4
29/07:30am 1.6 -3.0 1.5 99 0.0 SSE 15 20 8 11 1032.2 1032.5 0.4
29/07:00am 1.2 -3.5 1.1 99 0.0 SSE 15 19 8 10 1031.8 1032.1 0.2
29/06:30am 1.3 -3.7 1.2 99 0.0 SSE 17 20 9 11 1031.6 1031.9 0.2
29/06:00am 1.1 -4.3 1.0 99 0.0 SE 19 20 10 11 1031.4 1031.7 0.2
29/05:31am 1.0 -3.7 0.9 99 0.0 SE 15 19 8 10 1031.1 1031.4 0.2
29/05:30am 1.0 -3.7 0.9 99 0.0 SE 15 19 8 10 1031.1 1031.4 0.2
29/05:16am 0.7 -3.3 0.6 99 0.0 SE 11 15 6 8 1031.0 1031.3 0.2
29/05:00am 1.0 -3.3 0.9 99 0.0 SE 13 15 7 8 1031.1 1031.4 0.2
29/04:30am 1.6 -1.9 1.5 99 0.0 SE 9 13 5 7 1031.2 1031.5 0.2
29/04:00am 2.0 -2.2 1.9 99 0.0 SE 13 17 7 9 1031.3 1031.6 0.2
29/03:30am 2.7 -0.6 2.7 100 0.0 SE 9 13 5 7 1031.5 1031.8 0.2
29/03:00am 2.8 -0.8 2.8 100 0.0 SE 11 17 6 9 1031.6 1031.9 0.2
29/02:30am 2.8 -0.8 2.7 99 0.0 SE 11 15 6 8 1031.6 1031.9 0.2
29/02:00am 2.3 -1.8 2.2 99 0.0 SE 13 17 7 9 1031.7 1032.0 0.2
29/01:30am 1.8 -2.0 1.7 99 0.0 SSE 11 15 6 8 1031.8 1032.1 0.2
29/01:00am 1.5 -2.0 1.4 99 0.0 SE 9 17 5 9 1031.8 1032.1 0.2
29/12:30am 1.3 -1.8 1.2 99 0.0 SSE 7 9 4 5 1032.0 1032.3 0.2
29/12:00am 1.1 -2.4 1.0 99 0.0 ESE 9 11 5 6 1032.3 1032.6 0.0
 
Date/Time
EST
Temp
°C
App
Temp
°C
Dew
Point
Rel
Hum
%
Delta-T
°C
Wind Press
QNH
hPa
Press
MSL
hPa
Rain
since 9 am
mm
Dir
 
Spd
km/h
Gust
km/h
Spd
kts
Gust
kts
28/11:30pm 0.4 -3.2 0.3 99 0.0 ESE 9 11 5 6 1032.4 1032.7 0.0
28/11:00pm -0.2 -3.9 -0.3 99 0.0 ESE 9 11 5 6 1032.3 1032.6 0.0
28/10:43pm -0.8 -4.6 -0.9 99 0.0 E 9 11 5 6 1032.3 1032.6 0.0
28/10:34pm -0.5 -2.9 -0.6 99 0.0 SE 2 9 1 5 1032.3 1032.6 0.0
28/10:30pm -0.2 -2.2 -0.3 99 0.0 CALM 0 0 0 0 1032.3 1032.6 0.0
28/10:00pm 0.4 -2.3 0.3 99 0.0 ENE 4 6 2 3 1032.5 1032.8 0.0
28/09:30pm 0.2 -3.1 0.1 99 0.0 ENE 7 9 4 5 1032.5 1032.8 0.0
28/09:09pm 0.8 -2.4 0.7 99 0.0 E 7 9 4 5 1032.2 1032.5 0.0
28/09:00pm 0.1 -2.6 0.0 99 0.0 W 4 9 2 5 1032.2 1032.5 0.0
28/08:57pm 0.0 -2.4 -0.1 99 0.0 W 2 9 1 5 1032.2 1032.5 0.0
28/08:30pm 1.4 -0.4 1.3 99 0.0 CALM 0 0 0 0 1032.2 1032.5 0.0
28/08:18pm 1.3 -1.3 1.2 99 0.0 W 4 7 2 4 1032.3 1032.6 0.0
28/08:00pm 3.3 1.8 3.2 99 0.0 CALM 0 0 0 0 1032.3 1032.6 0.0
28/07:30pm 4.0 1.9 3.9 99 0.0 W 4 6 2 3 1032.2 1032.5 0.0
28/07:00pm 5.4 3.0 5.3 99 0.0 WSW 7 11 4 6 1032.0 1032.3 0.0
28/06:30pm 4.5 2.1 4.4 99 0.0 W 6 7 3 4 1031.6 1031.9 0.0
28/06:07pm 5.1 2.6 5.0 99 0.0 WNW 7 7 4 4 1031.3 1031.6 0.0
28/06:05pm 5.1 2.8 5.0 99 0.0 WNW 6 7 3 4 1031.3 1031.6 0.0
28/06:00pm 5.3 3.1 5.2 99 0.0 WNW 6 7 3 4 1031.3 1031.6 0.0
28/05:45pm 5.1 2.6 4.5 96 0.3 WNW 7 9 4 5 1031.3 1031.6 0.0
28/05:30pm 6.1 3.4 5.5 96 0.3 WNW 9 11 5 6 1031.2 1031.5 0.0
28/05:00pm 7.5 4.5 6.1 91 0.6 WNW 11 13 6 7 1031.2 1031.5 0.0
28/04:30pm 9.4 6.2 6.7 83 1.3 NW 13 13 7 7 1031.2 1031.5 0.0
28/04:00pm 10.5 8.8 7.4 81 1.5 WNW 6 9 3 5 1031.2 1031.5 0.0
28/03:30pm 8.9 7.5 7.2 89 0.8 S 4 7 2 4 1031.4 1031.7 0.0
28/03:06pm 8.7 6.4 7.3 91 0.7 SW 9 11 5 6 1031.4 1031.7 0.0
28/03:00pm 8.8 6.6 7.7 93 0.5 S 9 11 5 6 1031.3 1031.6 0.0
28/02:30pm 7.4 5.4 7.3 99 0.0 SSE 7 11 4 6 1031.5 1031.8 0.0
28/02:00pm 6.3 3.3 6.2 99 0.0 SSE 11 15 6 8 1031.9 1032.2 0.0
28/01:30pm 6.6 4.1 6.6 100 0.0 SSE 9 15 5 8 1032.0 1032.3 0.0
28/01:00pm 6.0 3.4 6.0 100 0.0 SSE 9 15 5 8 1032.5 1032.8 0.0
28/12:30pm 5.4 2.7 5.4 100 0.0 S 9 13 5 7 1032.9 1033.2 0.0
28/12:27pm 5.6 2.9 5.6 100 0.0 S 9 13 5 7 1032.9 1033.2 0.0
28/12:09pm 5.1 2.3 5.1 100 0.0 S 9 13 5 7 1033.0 1033.3 0.0
28/12:00pm 5.0 2.2 5.0 100 0.0 S 9 13 5 7 1033.2 1033.5 0.0
28/11:49am 5.0 2.5 5.0 100 0.0 S 7 13 4 7 1033.3 1033.6 0.0
28/11:30am 4.4 1.1 4.4 100 0.0 SSE 11 17 6 9 1033.5 1033.8 0.0
28/11:00am 4.2 0.8 4.2 100 0.0 ESE 11 15 6 8 1033.7 1034.0 0.0
28/10:30am 3.7 -0.5 3.7 100 0.0 SSE 15 17 8 9 1034.1 1034.5 0.0
28/10:00am 3.2 -1.1 3.1 99 0.0 SSE 15 20 8 11 1034.2 1034.6 0.0
28/09:30am 3.1 -0.9 3.0 99 0.0 SSE 13 19 7 10 1034.1 1034.5 0.0
28/09:00am 2.2 -1.9 2.1 99 0.0 SSE 13 19 7 10 1033.9 1034.3 0.2
28/08:36am 2.1 -1.7 2.0 99 0.0 SE 11 15 6 8 1033.7 1034.0 0.2
28/08:30am 1.9 -2.3 1.8 99 0.0 SSE 13 15 7 8 1033.6 1033.9 0.2
28/08:00am 1.7 -1.7 1.6 99 0.0 SSE 9 11 5 6 1033.2 1033.5 0.2
28/07:30am 1.5 -2.7 1.4 99 0.0 SE 13 15 7 8 1032.9 1033.2 0.2
28/07:00am 1.6 -1.9 1.5 99 0.0 SSE 9 13 5 7 1032.7 1033.0 0.2
28/06:30am 1.9 -2.3 1.8 99 0.0 SSE 13 17 7 9 1032.3 1032.6 0.2
28/06:00am 2.6 -1.1 2.5 99 0.0 SE 11 17 6 9 1032.1 1032.4 0.2
28/05:30am 2.6 -1.5 2.5 99 0.0 SSE 13 15 7 8 1031.8 1032.1 0.2
28/05:00am 2.9 0.0 2.8 99 0.0 SE 7 11 4 6 1031.4 1031.7 0.2
28/04:30am 2.9 -0.3 2.8 99 0.0 SSE 9 13 5 7 1031.3 1031.6 0.2
28/04:00am 1.9 -1.1 1.8 99 0.0 SE 7 9 4 5 1031.3 1031.6 0.0
28/03:30am 2.8 -0.5 2.7 99 0.0 SSE 9 13 5 7 1031.5 1031.8 0.0
28/03:00am 3.7 1.5 3.6 99 0.0 SE 4 9 2 5 1031.5 1031.8 0.0
28/02:53am 3.1 1.2 3.0 99 0.0 ESE 2 9 1 5 1031.5 1031.8 0.0
28/02:30am 3.5 0.4 3.4 99 0.0 SSE 9 13 5 7 1031.5 1031.8 0.0
28/02:00am 4.2 2.1 4.1 99 0.0 SSE 4 9 2 5 1031.7 1032.0 0.0
28/01:30am 3.9 1.4 3.8 99 0.0 SSE 6 9 3 5 1031.7 1032.0 0.0
28/01:00am 4.2 1.8 4.1 99 0.0 SE 6 7 3 4 1031.7 1032.0 0.0
28/12:30am 5.0 2.5 4.9 99 0.0 SE 7 7 4 4 1031.8 1032.1 0.0
28/12:00am 5.4 3.2 5.3 99 0.0 SE 6 7 3 4 1032.0 1032.3 0.0
 
Date/Time
EST
Temp
°C
App
Temp
°C
Dew
Point
Rel
Hum
%
Delta-T
°C
Wind Press
QNH
hPa
Press
MSL
hPa
Rain
since 9 am
mm
Dir
 
Spd
km/h
Gust
km/h
Spd
kts
Gust
kts
27/11:30pm 4.8 3.2 4.4 97 0.2 SE 2 7 1 4 1032.0 1032.3 0.0
27/11:12pm 4.4 2.3 3.7 95 0.3 SE 4 7 2 4 1032.1 1032.4 0.0
27/11:00pm 5.1 3.5 4.4 95 0.3 ESE 2 6 1 3 1032.2 1032.5 0.0
27/10:30pm 5.9 2.8 3.6 85 1.0 SSE 9 13 5 7 1032.1 1032.4 0.0
27/10:00pm 8.7 4.7 6.7 87 0.9 S 17 22 9 12 1032.1 1032.4 0.0
27/09:30pm 8.8 4.9 6.9 88 0.9 S 17 20 9 11 1032.1 1032.4 0.0
27/09:00pm 8.5 4.9 6.6 88 0.9 S 15 17 8 9 1032.2 1032.5 0.0
27/08:30pm 8.8 5.5 6.6 86 1.0 S 13 17 7 9 1032.1 1032.4 0.0
27/08:00pm 8.5 5.5 6.1 85 1.1 S 11 13 6 7 1032.0 1032.3 0.0

Other Formats:

Comma delimited format used in spreadsheet applications
http://www.bom.gov.au/fwo/IDN60801/IDN60801.95719.axf

JavaScript Object Notation format (JSON) in row-major order
http://www.bom.gov.au/fwo/IDN60801/IDN60801.95719.json